Terminal Aerodrome Forecast
Issued by NWS

Home | Current Version | Previous Version | Text Only | Print | Product List | Glossary On
Versions: 1 2 3 4 5 6 7 8 9 10 11 12 13 14 15 16 17 18 19 20 21 22 23 24 25 26 27 28 29 30
246
FTUS46 KPQR 162325
TAFONP
TAF
KONP 162325Z 1700/1724 08014KT P6SM -RA BKN050 OVC060
     FM170300 09013KT P6SM -RA OVC050
     FM171000 11015KT P6SM -RA OVC070
     FM171600 11015KT 5SM -RA BR OVC050
     FM171800 12019KT P6SM -RA OVC050
     FM172100 19025G32KT 5SM -RA BR OVC050=

USA.gov is the U.S. government's official web portal to all federal, state and local government web resources and services.